Terminal Aerodrome Forecast
Issued by NWS

Current Version | Previous Version | Text Only | Print | Product List | Glossary On
Versions: 1 2 3 4 5 6 7 8 9 10 11 12 13 14 15 16 17 18
788
FTUS41 KBTV 250536
TAFMPV
TAF
KMPV 250536Z 2506/2606 00000KT P6SM BKN150
     FM251500 17005KT P6SM BKN150
     FM252200 21006KT P6SM VCSH BKN050
     FM260400 22005KT P6SM BKN080=

USA.gov is the U.S. government's official web portal to all federal, state and local government web resources and services.